KEGV

Details ICAO KEGV (EGV)
Name EAGLE RIVER UNION
Region United States
Timezone America/Chicago (UTC-5.0)
Plans Departing 1
Arriving 8
Stats Elevation 1,642 ft / 500 m (AMSL)
Location 45.932465° -89.268096°
Runways 2
Magnetic Variation 3.305° W
Sunrise 2018-05-22 10:19:09 UTC / 2018-05-22 05:19:09 Local
Sunset 2018-05-23 01:31:13 UTC / 2018-05-22 20:31:13 Local
Advertisement - Login to hide

Runways

ID Width Length Bearing (true) Bearing (mag) Surface Threshold Offset Overrun Length
04 76 ft / 23 m 4,996 ft / 1,523 m 45.27° 48.58° Asphalt 0 ft / 0 m 300 ft / 91 m
13 60 ft / 18 m 3,396 ft / 1,035 m 132.51° 135.82° Asphalt 0 ft / 0 m 0 ft / 0 m
22 76 ft / 23 m 4,996 ft / 1,523 m 225.28° 228.59° Asphalt 0 ft / 0 m 0 ft / 0 m
31 60 ft / 18 m 3,396 ft / 1,035 m 312.52° 315.83° Asphalt 0 ft / 0 m 0 ft / 0 m

Map

Weather


0- 5 10 15 20 25 30 35+ Temperature / ° C

Clouds and Precipitation
Forecast for 2018-05-22 06:00 UTC. Updated an hour ago

Ground ~20,000 ft ~40,000 ft Winds

METAR

KEGV 220635Z AUTO 00000KT 10SM OVC049 11/08 A3003 RMK AO2 T01050075

TAF

Not found

Frequencies

Recorded 118.32 MHz AWOS 3
Unicom 122.80 MHz CTAF/UNICOM
Warning: Do not use this data for real-world aviation or navigation. No guarantee of current accuracy is given.